createdAt,value
2023-04-15T00:00:42.230Z,2.95
2023-04-15T00:03:10.629Z,2.91
2023-04-15T00:05:38.836Z,2.88
2023-04-15T00:08:07.739Z,2.83
2023-04-15T00:10:35.829Z,2.77
2023-04-15T00:13:04.438Z,2.72
2023-04-15T00:15:33.797Z,2.65
2023-04-15T00:18:02.452Z,2.58
2023-04-15T00:20:30.483Z,2.52
2023-04-15T00:22:59.523Z,2.52
2023-04-15T00:25:27.619Z,2.57
2023-04-15T00:27:55.739Z,2.60
2023-04-15T00:30:25.767Z,2.62
2023-04-15T00:32:55.556Z,2.63
2023-04-15T00:35:25.542Z,2.64
2023-04-15T00:37:53.939Z,2.65
2023-04-15T00:40:24.744Z,2.69
2023-04-15T00:42:53.440Z,2.71
2023-04-15T00:45:21.654Z,2.75
2023-04-15T00:47:49.879Z,2.76
2023-04-15T00:50:19.359Z,2.75
2023-04-15T00:52:47.520Z,2.66
2023-04-15T00:55:17.029Z,2.59
2023-04-15T00:57:46.090Z,2.52
2023-04-15T01:00:14.712Z,2.48
2023-04-15T01:02:42.954Z,2.42
2023-04-15T01:05:11.261Z,2.35
2023-04-15T01:07:40.714Z,2.31
2023-04-15T01:10:09.773Z,2.27
2023-04-15T01:12:39.618Z,2.29
2023-04-15T01:15:11.018Z,2.36
2023-04-15T01:17:39.802Z,2.42
2023-04-15T01:20:12.243Z,2.43
2023-04-15T01:22:42.440Z,2.41
2023-04-15T01:25:14.015Z,2.39
2023-04-15T01:27:43.484Z,2.40
2023-04-15T01:30:12.237Z,2.40
2023-04-15T01:32:40.314Z,2.39
2023-04-15T01:35:08.888Z,2.39
2023-04-15T01:37:38.009Z,2.39
2023-04-15T01:40:07.060Z,2.33
2023-04-15T01:42:37.440Z,2.30
2023-04-15T01:45:08.366Z,2.25
2023-04-15T01:47:39.363Z,2.26
2023-04-15T01:50:08.590Z,2.25
2023-04-15T01:52:36.723Z,2.21
2023-04-15T01:55:06.260Z,2.18
2023-04-15T01:57:34.481Z,2.19
2023-04-15T02:00:02.584Z,2.19
2023-04-15T02:02:43.046Z,2.15
2023-04-15T02:05:11.346Z,2.17
2023-04-15T02:07:39.442Z,2.22
2023-04-15T02:10:08.035Z,2.23
2023-04-15T02:12:37.125Z,2.31
2023-04-15T02:15:05.900Z,2.36
2023-04-15T02:17:36.444Z,2.42
2023-04-15T02:20:06.974Z,2.48
2023-04-15T02:22:35.125Z,2.55
2023-04-15T02:25:03.198Z,2.57
2023-04-15T02:27:33.647Z,2.56
2023-04-15T02:30:01.934Z,2.58
2023-04-15T02:32:30.102Z,2.60
2023-04-15T02:34:58.201Z,2.57
2023-04-15T02:37:28.756Z,2.55
2023-04-15T02:39:57.200Z,2.55
2023-04-15T02:42:27.718Z,2.56
2023-04-15T02:44:56.461Z,2.58
2023-04-15T02:47:30.431Z,2.58
2023-04-15T02:50:00.542Z,2.58
2023-04-15T02:52:31.526Z,2.58
2023-04-15T02:55:00.924Z,2.55
2023-04-15T02:57:29.771Z,2.54
2023-04-15T03:00:00.845Z,2.54
2023-04-15T03:02:35.385Z,2.53
2023-04-15T03:05:04.377Z,2.56
2023-04-15T03:07:33.912Z,2.56
2023-04-15T03:10:03.572Z,2.58
2023-04-15T03:12:31.675Z,2.60
2023-04-15T03:15:02.087Z,2.58
2023-04-15T03:17:36.621Z,2.59
2023-04-15T03:20:06.367Z,2.59
2023-04-15T03:22:35.755Z,2.58
2023-04-15T03:25:05.242Z,2.57
2023-04-15T03:27:34.487Z,2.57
2023-04-15T03:30:05.013Z,2.57
2023-04-15T03:32:34.759Z,2.59
2023-04-15T03:35:02.939Z,2.57
2023-04-15T03:37:31.193Z,2.54
2023-04-15T03:40:00.622Z,2.52
2023-04-15T03:42:28.714Z,2.50
2023-04-15T03:44:56.805Z,2.45
2023-04-15T03:47:25.075Z,2.41
2023-04-15T03:49:53.145Z,2.37
2023-04-15T03:52:21.449Z,2.39
2023-04-15T03:54:49.485Z,2.37
2023-04-15T03:57:18.953Z,2.36
2023-04-15T03:59:46.934Z,2.32
2023-04-15T04:02:15.092Z,2.32
2023-04-15T04:04:43.846Z,2.29
2023-04-15T04:07:17.046Z,2.29
2023-04-15T04:09:47.036Z,2.34
2023-04-15T04:12:15.632Z,2.33
2023-04-15T04:14:45.075Z,2.37
2023-04-15T04:17:13.288Z,2.42
2023-04-15T04:19:41.618Z,2.48
2023-04-15T04:22:09.665Z,2.54
2023-04-15T04:24:37.753Z,2.60
2023-04-15T04:27:05.945Z,2.63
2023-04-15T04:29:34.045Z,2.64
2023-04-15T04:32:03.444Z,2.71
2023-04-15T04:34:32.628Z,2.75
2023-04-15T04:37:00.797Z,2.75
2023-04-15T04:39:29.082Z,2.72
2023-04-15T04:41:57.497Z,2.70
2023-04-15T04:44:25.701Z,2.67
2023-04-15T04:46:53.880Z,2.63
2023-04-15T04:49:23.320Z,2.53
2023-04-15T04:51:51.503Z,2.42
2023-04-15T04:54:19.709Z,2.39
2023-04-15T04:56:47.840Z,2.35
2023-04-15T04:59:16.872Z,2.25
2023-04-15T05:01:45.139Z,2.17
2023-04-15T05:04:13.490Z,2.15
2023-04-15T05:06:42.922Z,2.10
2023-04-15T05:09:11.089Z,2.04
2023-04-15T05:11:39.102Z,1.98
2023-04-15T05:14:07.642Z,1.91
2023-04-15T05:16:35.682Z,1.87
2023-04-15T05:19:03.879Z,1.84
2023-04-15T05:21:32.830Z,1.85
2023-04-15T05:24:02.274Z,1.85
2023-04-15T05:26:30.328Z,1.83
2023-04-15T05:28:58.754Z,1.78
2023-04-15T05:31:27.063Z,1.74
2023-04-15T05:33:55.407Z,1.68
2023-04-15T05:36:23.453Z,1.62
2023-04-15T05:38:51.527Z,1.60
2023-04-15T05:41:22.221Z,1.59
2023-04-15T05:43:50.390Z,1.59
2023-04-15T05:46:18.436Z,1.70
2023-04-15T05:48:46.654Z,1.79
2023-04-15T05:51:14.724Z,1.87
2023-04-15T05:53:43.000Z,1.94
2023-04-15T05:56:11.061Z,2.00
2023-04-15T05:58:40.483Z,2.03
2023-04-15T06:01:08.586Z,2.06
2023-04-15T06:03:36.798Z,2.08
2023-04-15T06:06:05.065Z,2.06
2023-04-15T06:08:33.183Z,2.12
2023-04-15T06:11:01.656Z,2.18
2023-04-15T06:13:30.505Z,2.28
2023-04-15T06:15:59.936Z,2.36
2023-04-15T06:18:28.124Z,2.46
2023-04-15T06:20:56.238Z,2.57
2023-04-15T06:23:26.295Z,2.66
2023-04-15T06:25:55.001Z,2.79
2023-04-15T06:28:23.113Z,2.92
2023-04-15T06:30:51.242Z,2.92
2023-04-15T06:33:20.925Z,2.90
2023-04-15T06:35:49.729Z,2.89
2023-04-15T06:38:17.883Z,2.86
2023-04-15T06:40:46.054Z,2.79
2023-04-15T06:43:14.141Z,2.77
2023-04-15T06:45:42.197Z,2.75
2023-04-15T06:48:10.409Z,2.74
2023-04-15T06:50:39.782Z,2.76
2023-04-15T06:53:07.883Z,2.77
2023-04-15T06:55:35.991Z,2.80
2023-04-15T06:58:04.096Z,2.86
2023-04-15T07:00:33.724Z,2.90
2023-04-15T07:03:03.698Z,2.94
2023-04-15T07:05:32.467Z,2.95
2023-04-15T07:08:02.041Z,2.95
2023-04-15T07:10:30.135Z,2.94
2023-04-15T07:12:58.370Z,2.89
2023-04-15T07:15:26.420Z,2.88
2023-04-15T07:17:54.807Z,2.94
2023-04-15T07:20:23.290Z,3.04
2023-04-15T07:22:51.616Z,3.13
2023-04-15T07:25:21.189Z,3.19
2023-04-15T07:27:49.320Z,3.24
2023-04-15T07:30:17.591Z,3.20
2023-04-15T07:32:45.788Z,3.16
2023-04-15T07:35:14.752Z,3.15
2023-04-15T07:37:43.463Z,3.19
2023-04-15T07:40:12.243Z,3.34
2023-04-15T07:42:42.306Z,3.47
2023-04-15T07:45:11.481Z,3.60
2023-04-15T07:47:40.924Z,3.50
2023-04-15T07:50:10.717Z,3.42
2023-04-15T07:52:40.165Z,3.38
2023-04-15T07:55:09.537Z,3.39
2023-04-15T07:57:38.395Z,3.54
2023-04-15T08:00:11.417Z,3.68
2023-04-15T08:02:42.804Z,3.71
2023-04-15T08:05:11.524Z,3.73
2023-04-15T08:07:39.793Z,3.82
2023-04-15T08:10:08.806Z,3.83
2023-04-15T08:12:37.126Z,3.96
2023-04-15T08:15:08.180Z,4.10
2023-04-15T08:17:36.492Z,4.26
2023-04-15T08:20:05.936Z,4.24
2023-04-15T08:22:34.502Z,4.26
2023-04-15T08:25:03.545Z,4.31
2023-04-15T08:27:31.755Z,4.47
2023-04-15T08:30:02.107Z,4.41
2023-04-15T08:32:32.907Z,4.45
2023-04-15T08:35:01.833Z,4.45
2023-04-15T08:37:30.071Z,4.51
2023-04-15T08:39:58.272Z,4.65
2023-04-15T08:42:32.765Z,4.61
2023-04-15T08:45:02.111Z,4.60
2023-04-15T08:47:32.933Z,4.66
2023-04-15T08:50:04.493Z,4.78
2023-04-15T08:52:33.016Z,4.86
2023-04-15T08:55:03.309Z,4.81
2023-04-15T08:57:31.546Z,4.73
2023-04-15T08:59:59.724Z,4.64
2023-04-15T09:02:28.544Z,4.61
2023-04-15T09:04:58.086Z,4.64
2023-04-15T09:07:27.148Z,4.69
2023-04-15T09:09:55.300Z,4.71
2023-04-15T09:12:23.449Z,4.75
2023-04-15T09:14:52.509Z,4.87
2023-04-15T09:17:21.913Z,4.98
2023-04-15T09:19:50.173Z,5.08
2023-04-15T09:22:22.732Z,5.18
2023-04-15T09:24:50.948Z,5.55
2023-04-15T09:27:21.410Z,5.89
2023-04-15T09:29:51.650Z,6.05
2023-04-15T09:32:21.263Z,6.00
2023-04-15T09:34:49.538Z,5.83
2023-04-15T09:37:31.677Z,5.54
2023-04-15T09:40:00.617Z,5.30
2023-04-15T09:42:28.931Z,5.27
2023-04-15T09:44:57.059Z,5.35
2023-04-15T09:47:31.601Z,5.72
2023-04-15T09:50:01.076Z,6.15
2023-04-15T09:52:32.769Z,6.44
2023-04-15T09:55:01.589Z,6.48
2023-04-15T09:57:36.649Z,6.57
2023-04-15T10:00:05.456Z,6.93
2023-04-15T10:02:35.282Z,7.02
2023-04-15T10:05:04.152Z,6.73
2023-04-15T10:07:33.999Z,6.74
2023-04-15T10:10:03.802Z,7.07
2023-04-15T10:12:33.625Z,7.24
2023-04-15T10:15:05.980Z,7.38
2023-04-15T10:17:35.675Z,7.81
2023-04-15T10:20:04.980Z,7.95
2023-04-15T10:22:36.644Z,7.74
2023-04-15T10:25:10.861Z,7.38
2023-04-15T10:27:43.017Z,7.12
2023-04-15T10:30:14.953Z,6.99
2023-04-15T10:32:45.200Z,7.06
2023-04-15T10:35:15.074Z,7.07
2023-04-15T10:37:44.520Z,7.56
2023-04-15T10:40:27.335Z,8.15
2023-04-15T10:42:56.611Z,8.25
2023-04-15T10:45:28.371Z,7.68
2023-04-15T10:47:58.198Z,7.34
2023-04-15T10:50:29.781Z,7.75
2023-04-15T10:53:00.128Z,8.55
2023-04-15T10:55:33.446Z,8.62
2023-04-15T10:58:02.711Z,8.10
2023-04-15T11:00:32.682Z,7.60
2023-04-15T11:03:07.515Z,7.31
2023-04-15T11:05:55.943Z,7.26
2023-04-15T11:09:09.690Z,7.34
2023-04-15T11:12:13.397Z,7.64
2023-04-15T11:14:43.406Z,8.44
2023-04-15T11:17:11.631Z,8.53
2023-04-15T11:19:40.007Z,8.44
2023-04-15T11:22:09.423Z,8.19
2023-04-15T11:24:48.544Z,8.25
2023-04-15T11:27:23.378Z,8.39
2023-04-15T11:29:52.379Z,8.64
2023-04-15T11:32:20.564Z,9.38
2023-04-15T11:34:49.006Z,10.08
2023-04-15T11:37:17.168Z,9.75
2023-04-15T11:39:46.559Z,9.24
2023-04-15T11:42:18.482Z,9.53
2023-04-15T11:44:46.600Z,10.09
2023-04-15T11:47:24.314Z,10.32
2023-04-15T11:49:52.559Z,10.22
2023-04-15T11:52:20.721Z,9.73
2023-04-15T11:54:50.163Z,9.50
2023-04-15T11:57:18.252Z,9.50
2023-04-15T11:59:46.481Z,9.45
2023-04-15T12:02:14.931Z,9.55
2023-04-15T12:04:43.435Z,9.46
2023-04-15T12:07:12.707Z,9.53
2023-04-15T12:09:41.349Z,9.51
2023-04-15T12:12:12.388Z,9.59
2023-04-15T12:14:42.417Z,9.46
2023-04-15T12:17:13.217Z,9.08
2023-04-15T12:19:43.152Z,8.76
2023-04-15T12:22:13.349Z,8.66
2023-04-15T12:24:43.988Z,8.55
2023-04-15T12:27:14.329Z,8.56
2023-04-15T12:29:44.244Z,8.65
2023-04-15T12:32:13.974Z,8.69
2023-04-15T12:34:44.727Z,8.54
2023-04-15T12:37:14.455Z,8.51
2023-04-15T12:39:45.731Z,8.77
2023-04-15T12:42:16.863Z,8.91
2023-04-15T12:44:45.363Z,9.25
2023-04-15T12:47:14.266Z,9.40
2023-04-15T12:49:42.395Z,9.42
2023-04-15T12:52:10.612Z,9.56
2023-04-15T12:54:38.650Z,9.48
2023-04-15T12:57:08.112Z,9.42
2023-04-15T12:59:37.843Z,9.42
2023-04-15T13:02:06.210Z,9.37
2023-04-15T13:04:34.543Z,9.56
2023-04-15T13:07:03.004Z,9.71
2023-04-15T13:09:31.111Z,9.71
2023-04-15T13:11:59.351Z,9.47
2023-04-15T13:14:28.186Z,9.25
2023-04-15T13:16:58.136Z,9.17
2023-04-15T13:19:26.708Z,9.06
2023-04-15T13:21:54.862Z,9.09
2023-04-15T13:24:22.992Z,9.05
2023-04-15T13:26:51.072Z,9.07
2023-04-15T13:29:19.141Z,9.09
2023-04-15T13:31:47.329Z,9.17
2023-04-15T13:34:16.910Z,9.32
2023-04-15T13:36:44.974Z,9.39
2023-04-15T13:39:13.060Z,9.53
2023-04-15T13:41:41.852Z,9.52
2023-04-15T13:44:10.033Z,9.52
2023-04-15T13:46:39.631Z,9.64
2023-04-15T13:49:07.719Z,9.74
2023-04-15T13:51:37.324Z,9.69
2023-04-15T13:54:05.857Z,9.74
2023-04-15T13:56:34.243Z,9.86
2023-04-15T13:59:03.401Z,9.86
2023-04-15T14:01:31.688Z,9.81
2023-04-15T14:03:59.917Z,9.87
2023-04-15T14:06:28.570Z,9.82
2023-04-15T14:08:58.074Z,9.86
2023-04-15T14:11:26.352Z,9.88
2023-04-15T14:13:54.415Z,9.95
2023-04-15T14:16:22.725Z,9.88
2023-04-15T14:18:50.822Z,9.79
2023-04-15T14:21:19.060Z,9.92
2023-04-15T14:23:47.224Z,10.00
2023-04-15T14:26:16.703Z,10.04
2023-04-15T14:28:45.193Z,10.10
2023-04-15T14:31:14.351Z,10.12
2023-04-15T14:33:42.568Z,10.28
2023-04-15T14:36:11.258Z,10.63
2023-04-15T14:38:40.156Z,10.85
2023-04-15T14:41:09.514Z,10.95
2023-04-15T14:43:40.897Z,11.01
2023-04-15T14:46:09.609Z,10.77
2023-04-15T14:48:38.099Z,10.29
2023-04-15T14:51:06.535Z,10.06
2023-04-15T14:53:34.773Z,10.20
2023-04-15T14:56:03.099Z,10.42
2023-04-15T14:58:32.841Z,10.70
2023-04-15T15:01:03.053Z,10.98
2023-04-15T15:03:32.082Z,10.83
2023-04-15T15:06:00.338Z,10.73
2023-04-15T15:08:28.523Z,10.94
2023-04-15T15:10:56.631Z,11.16
2023-04-15T15:13:25.432Z,11.09
2023-04-15T15:15:53.687Z,10.92
2023-04-15T15:18:25.561Z,10.77
2023-04-15T15:20:53.781Z,10.68
2023-04-15T15:23:22.034Z,10.72
2023-04-15T15:25:50.283Z,10.71
2023-04-15T15:28:18.544Z,10.60
2023-04-15T15:30:46.619Z,10.52
2023-04-15T15:33:14.752Z,10.61
2023-04-15T15:35:44.274Z,10.78
2023-04-15T15:38:13.152Z,10.82
2023-04-15T15:40:41.405Z,10.86
2023-04-15T15:43:09.567Z,10.80
2023-04-15T15:45:37.770Z,10.76
2023-04-15T15:48:06.867Z,10.77
2023-04-15T15:50:35.542Z,10.83
2023-04-15T15:53:04.949Z,10.76
2023-04-15T15:55:33.170Z,10.65
2023-04-15T15:58:01.302Z,10.57
2023-04-15T16:00:29.499Z,10.39
2023-04-15T16:05:29.546Z,9.95
2023-04-15T16:07:57.728Z,9.77
2023-04-15T16:10:27.318Z,9.83
2023-04-15T16:12:56.192Z,10.03
2023-04-15T16:15:24.540Z,10.20
2023-04-15T16:17:52.675Z,10.28
2023-04-15T16:20:20.972Z,10.45
2023-04-15T16:22:49.151Z,10.54
2023-04-15T16:25:17.260Z,10.50
2023-04-15T16:27:59.474Z,10.46
2023-04-15T16:30:31.733Z,10.38
2023-04-15T16:32:59.977Z,10.32
2023-04-15T16:35:28.427Z,10.25
2023-04-15T16:37:56.649Z,10.17
2023-04-15T16:40:25.092Z,10.00
2023-04-15T16:42:54.599Z,9.79
2023-04-15T16:45:22.672Z,9.65
2023-04-15T16:47:50.803Z,9.63
2023-04-15T16:50:19.074Z,9.57
2023-04-15T16:52:47.197Z,9.48
2023-04-15T16:55:15.687Z,9.39
2023-04-15T16:58:00.524Z,9.33
2023-04-15T17:00:32.978Z,9.29
2023-04-15T17:03:02.104Z,9.23
2023-04-15T17:05:30.745Z,9.27
2023-04-15T17:07:59.371Z,9.35
2023-04-15T17:10:27.827Z,9.38
2023-04-15T17:12:57.707Z,9.38
2023-04-15T17:15:26.188Z,9.37
2023-04-15T17:17:56.112Z,9.30
2023-04-15T17:20:24.416Z,9.23
2023-04-15T17:22:52.633Z,9.19
2023-04-15T17:25:20.893Z,9.14
2023-04-15T17:27:49.110Z,9.15
2023-04-15T17:30:17.246Z,9.07
2023-04-15T17:32:45.692Z,8.92
2023-04-15T17:35:15.179Z,8.78
2023-04-15T17:37:43.382Z,8.65
2023-04-15T17:40:12.418Z,8.50
2023-04-15T17:42:40.740Z,8.32
2023-04-15T17:45:09.585Z,8.17
2023-04-15T17:47:37.853Z,8.01
2023-04-15T17:50:06.561Z,7.82
2023-04-15T17:52:36.094Z,7.62
2023-04-15T17:55:04.538Z,7.51
2023-04-15T17:57:32.684Z,7.47
2023-04-15T18:00:00.802Z,7.46
2023-04-15T18:02:29.279Z,7.39
2023-04-15T18:04:58.435Z,7.30
2023-04-15T18:07:26.738Z,7.21
2023-04-15T18:09:56.508Z,7.09
2023-04-15T18:12:24.702Z,7.00
2023-04-15T18:14:52.855Z,6.90
2023-04-15T18:17:21.404Z,6.75
2023-04-15T18:19:49.520Z,6.58
2023-04-15T18:22:17.651Z,6.48
2023-04-15T18:24:45.677Z,6.36
2023-04-15T18:27:15.227Z,6.26
2023-04-15T18:29:44.010Z,6.11
2023-04-15T18:32:12.199Z,5.99
2023-04-15T18:34:40.350Z,5.87
2023-04-15T18:37:08.584Z,5.77
2023-04-15T18:39:36.798Z,5.68
2023-04-15T18:42:05.011Z,5.63
2023-04-15T18:44:34.531Z,5.55
2023-04-15T18:47:02.813Z,5.45
2023-04-15T18:49:33.293Z,5.37
2023-04-15T18:52:01.709Z,5.31
2023-04-15T18:54:29.788Z,5.13
2023-04-15T18:56:58.462Z,4.95
2023-04-15T18:59:30.525Z,4.77
2023-04-15T19:02:01.265Z,4.69
2023-04-15T19:04:29.806Z,4.60
2023-04-15T19:06:59.002Z,4.56
2023-04-15T19:09:27.465Z,4.49
2023-04-15T19:11:56.956Z,4.38
2023-04-15T19:14:25.451Z,4.24
2023-04-15T19:16:53.793Z,4.18
2023-04-15T19:19:23.253Z,4.09
2023-04-15T19:21:51.568Z,3.99
2023-04-15T19:24:19.985Z,3.92
2023-04-15T19:26:51.118Z,3.84
2023-04-15T19:29:19.446Z,3.71
2023-04-15T19:31:47.559Z,3.60
2023-04-15T19:34:15.884Z,3.58
2023-04-15T19:36:45.518Z,3.60
2023-04-15T19:39:14.654Z,3.64
2023-04-15T19:41:44.302Z,3.67
2023-04-15T19:44:13.723Z,3.64
2023-04-15T19:46:44.097Z,3.64
2023-04-15T19:49:12.359Z,3.58
2023-04-15T19:51:40.431Z,3.56
2023-04-15T19:54:09.966Z,3.53
2023-04-15T19:56:38.278Z,3.50
2023-04-15T19:59:06.636Z,3.35
2023-04-15T20:01:34.987Z,3.21
2023-04-15T20:04:04.044Z,3.15
2023-04-15T20:06:32.682Z,3.10
2023-04-15T20:09:00.749Z,3.10
2023-04-15T20:12:48.326Z,3.12
2023-04-15T20:14:18.684Z,3.06
2023-04-15T20:16:47.795Z,3.04
2023-04-15T20:19:16.180Z,3.09
2023-04-15T20:21:44.203Z,3.17
2023-04-15T20:24:12.399Z,3.21
2023-04-15T20:26:41.882Z,3.29
2023-04-15T20:29:09.948Z,3.32
2023-04-15T20:31:38.079Z,3.36
2023-04-15T20:34:06.420Z,3.37
2023-04-15T20:36:34.538Z,3.36
2023-04-15T20:39:02.841Z,3.22
2023-04-15T20:41:31.009Z,3.16
2023-04-15T20:44:00.537Z,3.16
2023-04-15T20:46:28.812Z,3.15
2023-04-15T20:48:56.977Z,3.19
2023-04-15T20:51:25.170Z,3.17
2023-04-15T20:53:53.270Z,3.04
2023-04-15T20:56:21.421Z,2.99
2023-04-15T20:58:49.533Z,2.98
2023-04-15T21:01:19.056Z,3.00
2023-04-15T21:03:47.178Z,3.00
2023-04-15T21:06:15.563Z,2.93
2023-04-15T21:08:43.693Z,2.95
2023-04-15T21:11:11.834Z,3.00
2023-04-15T21:13:39.923Z,3.06
2023-04-15T21:16:08.064Z,3.11
2023-04-15T21:18:37.463Z,3.19
2023-04-15T21:21:06.100Z,3.28
2023-04-15T21:23:35.912Z,3.36
2023-04-15T21:26:04.283Z,3.43
2023-04-15T21:28:32.878Z,3.47
2023-04-15T21:31:01.285Z,3.46
2023-04-15T21:33:29.374Z,3.41
2023-04-15T21:35:58.794Z,3.38
2023-04-15T21:38:26.899Z,3.30
2023-04-15T21:40:55.245Z,3.27
2023-04-15T21:43:25.673Z,3.28
2023-04-15T21:46:23.469Z,3.31
2023-04-15T21:48:42.634Z,3.37
2023-04-15T21:51:12.359Z,3.43
2023-04-15T21:53:40.742Z,3.43
2023-04-15T21:56:09.529Z,3.43
2023-04-15T21:58:37.922Z,3.44
2023-04-15T22:01:06.438Z,3.43
2023-04-15T22:03:35.949Z,3.42
2023-04-15T22:06:04.814Z,3.42
2023-04-15T22:08:44.602Z,3.46
2023-04-15T22:11:26.234Z,3.50
2023-04-15T22:13:54.737Z,3.54
2023-04-15T22:16:22.977Z,3.58
2023-04-15T22:18:51.354Z,3.59
2023-04-15T22:21:19.841Z,3.63
2023-04-15T22:23:50.482Z,3.67
2023-04-15T22:26:18.703Z,3.68
2023-04-15T22:28:46.943Z,3.66
2023-04-15T22:31:15.351Z,3.67
2023-04-15T22:33:43.573Z,3.68
2023-04-15T22:36:11.755Z,3.67
2023-04-15T22:38:39.778Z,3.67
2023-04-15T22:41:09.208Z,3.68
2023-04-15T22:43:37.386Z,3.72
2023-04-15T22:46:05.606Z,3.75
2023-04-15T22:48:33.649Z,3.77
2023-04-15T22:51:01.851Z,3.80
2023-04-15T22:53:30.012Z,3.82
2023-04-15T22:55:58.149Z,3.81
2023-04-15T22:58:27.538Z,3.82
2023-04-15T23:00:55.771Z,3.81
2023-04-15T23:03:23.964Z,3.85
2023-04-15T23:05:52.148Z,3.86
2023-04-15T23:08:20.230Z,3.85
2023-04-15T23:10:49.327Z,3.83
2023-04-15T23:13:17.479Z,3.83
2023-04-15T23:15:46.948Z,3.81
2023-04-15T23:18:15.040Z,3.80
2023-04-15T23:20:43.173Z,3.78
2023-04-15T23:23:11.288Z,3.75
2023-04-15T23:25:39.377Z,3.73
2023-04-15T23:28:07.591Z,3.71
2023-04-15T23:30:35.758Z,3.73
2023-04-15T23:33:05.545Z,3.72
2023-04-15T23:35:33.819Z,3.71
2023-04-15T23:38:01.925Z,3.73
2023-04-15T23:40:30.107Z,3.74
2023-04-15T23:42:58.366Z,3.75
2023-04-15T23:45:26.495Z,3.74
2023-04-15T23:47:54.541Z,3.74
2023-04-15T23:50:24.099Z,3.72
2023-04-15T23:52:52.249Z,3.72
2023-04-15T23:55:20.428Z,3.71
2023-04-15T23:57:48.458Z,3.71
